createdAt,value
2022-08-07T00:00:03.014Z,42.47
2022-08-07T00:02:44.506Z,42.71
2022-08-07T00:05:16.531Z,42.75
2022-08-07T00:07:43.601Z,42.75
2022-08-07T00:10:27.078Z,43.09
2022-08-07T00:13:00.320Z,42.87
2022-08-07T00:15:46.702Z,42.92
2022-08-07T00:18:35.386Z,43.36
2022-08-07T00:21:55.886Z,43.61
2022-08-07T00:23:56.430Z,43.81
2022-08-07T00:26:58.445Z,43.38
2022-08-07T00:29:31.472Z,43.82
2022-08-07T00:32:32.550Z,43.84
2022-08-07T00:35:02.052Z,43.60
2022-08-07T00:37:47.800Z,44.11
2022-08-07T00:40:36.635Z,44.33
2022-08-07T00:44:00.978Z,44.01
2022-08-07T00:46:04.581Z,44.91
2022-08-07T00:48:34.608Z,45.02
2022-08-07T00:51:06.244Z,45.51
2022-08-07T00:53:55.005Z,45.98
2022-08-07T00:56:33.977Z,45.21
2022-08-07T00:59:09.878Z,46.24
2022-08-07T01:01:44.746Z,47.90
2022-08-07T01:04:26.844Z,48.41
2022-08-07T01:07:00.894Z,46.78
2022-08-07T01:10:04.729Z,47.89
2022-08-07T01:12:29.758Z,47.85
2022-08-07T01:15:03.654Z,47.58
2022-08-07T01:17:43.989Z,48.00
2022-08-07T01:20:21.130Z,47.37
2022-08-07T01:23:09.007Z,47.77
2022-08-07T01:25:55.615Z,48.64
2022-08-07T01:28:27.110Z,49.42
2022-08-07T01:30:56.383Z,48.97
2022-08-07T01:33:56.084Z,52.63
2022-08-07T01:36:21.803Z,49.99
2022-08-07T01:42:07.360Z,51.05
2022-08-07T01:44:34.828Z,52.33
2022-08-07T01:47:14.535Z,52.46
2022-08-07T01:50:00.760Z,51.61
2022-08-07T01:52:49.437Z,51.71
2022-08-07T01:55:24.231Z,51.74
2022-08-07T01:58:06.377Z,51.41
2022-08-07T02:00:49.092Z,50.86
2022-08-07T02:03:21.756Z,50.99
2022-08-07T02:05:59.828Z,50.97
2022-08-07T02:08:33.787Z,50.80
2022-08-07T02:11:03.802Z,51.01
2022-08-07T02:13:57.880Z,50.46
2022-08-07T02:16:32.959Z,50.72
2022-08-07T02:19:05.597Z,51.59
2022-08-07T02:21:56.948Z,51.42
2022-08-07T02:24:29.545Z,52.05
2022-08-07T02:27:02.795Z,51.18
2022-08-07T02:29:43.395Z,50.92
2022-08-07T02:32:23.416Z,50.79
2022-08-07T02:34:57.469Z,52.10
2022-08-07T02:37:27.087Z,52.07
2022-08-07T02:40:11.757Z,52.36
2022-08-07T02:43:02.374Z,52.48
2022-08-07T02:45:58.899Z,55.37
2022-08-07T02:48:31.695Z,52.80
2022-08-07T02:51:07.037Z,53.07
2022-08-07T02:53:54.438Z,54.45
2022-08-07T02:56:25.969Z,53.90
2022-08-07T02:59:12.472Z,56.71
2022-08-07T03:01:47.271Z,54.64
2022-08-07T03:04:24.743Z,54.49
2022-08-07T03:07:07.227Z,54.59
2022-08-07T03:09:52.811Z,55.66
2022-08-07T03:12:39.170Z,54.44
2022-08-07T03:15:10.016Z,55.56
2022-08-07T03:17:53.380Z,54.98
2022-08-07T03:20:24.658Z,56.08
2022-08-07T03:22:59.101Z,54.98
2022-08-07T03:28:38.418Z,55.44
2022-08-07T03:31:42.677Z,54.58
2022-08-07T03:34:22.537Z,54.88
2022-08-07T03:36:59.404Z,54.70
2022-08-07T03:39:46.084Z,55.25
2022-08-07T03:42:52.124Z,56.87
2022-08-07T03:45:31.598Z,55.99
2022-08-07T03:48:09.980Z,56.62
2022-08-07T03:50:57.743Z,55.62
2022-08-07T03:53:50.218Z,55.56
2022-08-07T03:59:30.549Z,56.39
2022-08-07T04:02:14.296Z,56.18
2022-08-07T04:04:45.196Z,57.11
2022-08-07T04:07:35.927Z,56.46
2022-08-07T04:10:04.716Z,57.91
2022-08-07T04:12:45.668Z,56.74
2022-08-07T04:15:23.960Z,57.68
2022-08-07T04:18:57.225Z,57.42
2022-08-07T04:20:55.002Z,59.62
2022-08-07T04:23:23.281Z,57.97
2022-08-07T04:26:21.665Z,58.96
2022-08-07T04:28:55.106Z,58.86
2022-08-07T04:31:38.476Z,59.93
2022-08-07T04:34:36.487Z,58.44
2022-08-07T04:37:20.574Z,58.93
2022-08-07T04:39:47.974Z,58.71
2022-08-07T04:42:19.632Z,58.89
2022-08-07T04:44:54.350Z,59.16
2022-08-07T04:47:57.045Z,57.95
2022-08-07T04:50:41.914Z,58.13
2022-08-07T04:53:40.270Z,57.73
2022-08-07T04:58:11.156Z,57.46
2022-08-07T05:00:12.396Z,58.33
2022-08-07T05:02:16.865Z,58.73
2022-08-07T05:04:53.792Z,59.68
2022-08-07T05:07:48.359Z,58.18
2022-08-07T05:10:23.216Z,61.01
2022-08-07T05:14:44.473Z,58.62
2022-08-07T05:16:13.628Z,58.49
2022-08-07T05:18:47.232Z,57.79
2022-08-07T05:21:25.294Z,58.28
2022-08-07T05:24:11.844Z,58.21
2022-08-07T05:26:39.599Z,57.37
2022-08-07T05:29:08.354Z,57.95
2022-08-07T05:31:41.093Z,57.55
2022-08-07T05:34:19.254Z,57.54
2022-08-07T05:36:52.758Z,57.35
2022-08-07T05:40:06.941Z,57.66
2022-08-07T05:42:12.367Z,57.69
2022-08-07T05:44:41.501Z,57.07
2022-08-07T05:47:37.924Z,56.39
2022-08-07T05:50:03.257Z,56.44
2022-08-07T05:52:32.719Z,55.91
2022-08-07T05:55:07.249Z,56.07
2022-08-07T05:57:42.361Z,56.06
2022-08-07T06:00:16.327Z,55.62
2022-08-07T06:02:47.788Z,55.45
2022-08-07T06:05:15.813Z,55.92
2022-08-07T06:08:14.461Z,55.45
2022-08-07T06:10:30.372Z,54.91
2022-08-07T06:12:57.081Z,54.33
2022-08-07T06:15:39.488Z,54.08
2022-08-07T06:18:12.205Z,53.99
2022-08-07T06:20:50.276Z,53.80
2022-08-07T06:24:37.936Z,53.75
2022-08-07T06:26:16.715Z,53.84
2022-08-07T06:28:50.265Z,52.98
2022-08-07T06:31:20.110Z,52.57
2022-08-07T06:33:50.911Z,52.62
2022-08-07T06:36:34.861Z,52.60
2022-08-07T06:40:16.632Z,52.55
2022-08-07T06:42:04.602Z,52.03
2022-08-07T06:44:36.581Z,51.08
2022-08-07T06:47:10.141Z,51.31
2022-08-07T06:49:50.984Z,50.36
2022-08-07T06:52:31.884Z,50.29
2022-08-07T06:55:33.771Z,49.45
2022-08-07T06:58:00.642Z,48.40
2022-08-07T07:00:34.658Z,47.22
2022-08-07T07:03:08.894Z,45.81
2022-08-07T07:06:04.725Z,44.69
2022-08-07T07:08:29.588Z,45.61
2022-08-07T07:10:58.810Z,44.74
2022-08-07T07:13:56.330Z,44.11
2022-08-07T07:16:23.729Z,43.21
2022-08-07T07:19:11.461Z,43.91
2022-08-07T07:22:04.721Z,42.55
2022-08-07T07:24:38.305Z,42.32
2022-08-07T07:27:13.395Z,41.83
2022-08-07T07:30:09.413Z,41.83
2022-08-07T07:32:40.888Z,42.10
2022-08-07T07:35:12.021Z,41.27
2022-08-07T07:37:49.482Z,41.19
2022-08-07T07:40:25.519Z,41.32
2022-08-07T07:42:55.600Z,41.07
2022-08-07T07:46:53.349Z,40.28
2022-08-07T07:48:24.316Z,39.97
2022-08-07T07:51:07.739Z,40.38
2022-08-07T07:53:50.355Z,39.57
2022-08-07T07:56:30.125Z,39.65
2022-08-07T07:59:01.603Z,38.46
2022-08-07T08:02:01.997Z,38.39
2022-08-07T08:04:18.394Z,38.25
2022-08-07T08:06:52.130Z,38.42
2022-08-07T08:09:24.129Z,37.13
2022-08-07T08:12:01.854Z,36.84
2022-08-07T08:14:36.564Z,36.35
2022-08-07T08:18:36.859Z,35.31
2022-08-07T08:20:18.487Z,35.46
2022-08-07T08:23:08.418Z,34.22
2022-08-07T08:25:56.769Z,33.52
2022-08-07T08:28:38.667Z,34.62
2022-08-07T08:31:14.792Z,33.98
2022-08-07T08:33:55.685Z,33.50
2022-08-07T08:36:30.047Z,32.60
2022-08-07T08:39:01.991Z,32.93
2022-08-07T08:41:57.718Z,32.61
2022-08-07T08:44:36.254Z,32.57
2022-08-07T08:47:25.085Z,31.85
2022-08-07T08:50:35.377Z,31.39
2022-08-07T08:53:32.636Z,30.69
2022-08-07T08:56:22.865Z,30.62
2022-08-07T08:59:12.853Z,30.32
2022-08-07T09:02:00.165Z,30.71
2022-08-07T09:04:31.643Z,30.61
2022-08-07T09:07:23.033Z,29.95
2022-08-07T09:09:58.735Z,29.83
2022-08-07T09:12:53.581Z,30.20
2022-08-07T09:16:24.256Z,29.81
2022-08-07T09:19:03.591Z,29.06
2022-08-07T09:22:10.122Z,28.84
2022-08-07T09:25:12.091Z,28.17
2022-08-07T09:30:01.134Z,29.03
2022-08-07T09:31:38.688Z,28.44
2022-08-07T09:34:21.500Z,28.44
2022-08-07T09:37:01.657Z,27.05
2022-08-07T09:39:53.769Z,27.10
2022-08-07T09:42:58.645Z,28.07
2022-08-07T09:47:50.443Z,27.99
2022-08-07T09:50:00.886Z,28.05
2022-08-07T09:52:10.497Z,27.80
2022-08-07T09:54:46.738Z,27.98
2022-08-07T09:57:37.530Z,27.62
2022-08-07T10:00:16.494Z,27.64
2022-08-07T10:04:05.007Z,27.10
2022-08-07T10:06:24.623Z,27.03
2022-08-07T10:09:23.718Z,27.21
2022-08-07T10:12:21.591Z,27.04
2022-08-07T10:14:58.395Z,26.26
2022-08-07T10:18:02.818Z,25.48
2022-08-07T10:20:50.305Z,25.98
2022-08-07T10:24:06.856Z,26.07
2022-08-07T10:26:56.350Z,25.40
2022-08-07T10:30:06.243Z,25.20
2022-08-07T10:32:51.008Z,24.77
2022-08-07T10:35:25.774Z,25.50
2022-08-07T10:38:35.324Z,24.96
2022-08-07T10:41:08.694Z,25.81
2022-08-07T10:43:48.019Z,24.95
2022-08-07T10:46:30.895Z,25.10
2022-08-07T10:49:04.166Z,24.20
2022-08-07T10:51:38.887Z,23.81
2022-08-07T10:54:17.856Z,23.66
2022-08-07T10:57:34.827Z,23.75
2022-08-07T11:00:36.901Z,23.67
2022-08-07T11:03:23.337Z,23.55
2022-08-07T11:06:26.926Z,22.91
2022-08-07T11:10:08.996Z,23.23
2022-08-07T11:12:37.854Z,22.82
2022-08-07T11:15:17.371Z,22.81
2022-08-07T11:17:50.097Z,22.46
2022-08-07T11:20:42.885Z,22.02
2022-08-07T11:23:38.774Z,22.61
2022-08-07T11:26:20.228Z,22.65
2022-08-07T11:28:58.866Z,22.28
2022-08-07T11:31:42.394Z,21.97
2022-08-07T11:34:31.990Z,22.47
2022-08-07T11:37:18.177Z,22.65
2022-08-07T11:40:03.603Z,22.71
2022-08-07T11:42:37.117Z,22.67
2022-08-07T11:45:50.195Z,22.14
2022-08-07T11:48:40.729Z,22.01
2022-08-07T11:51:41.819Z,21.94
2022-08-07T11:54:37.447Z,21.79
2022-08-07T11:57:20.724Z,22.03
2022-08-07T12:00:29.022Z,22.83
2022-08-07T12:03:42.300Z,22.74
2022-08-07T12:06:39.668Z,22.40
2022-08-07T12:09:24.714Z,22.40
2022-08-07T12:12:09.277Z,22.24
2022-08-07T12:14:56.277Z,22.05
2022-08-07T12:17:34.156Z,21.82
2022-08-07T12:20:32.325Z,21.84
2022-08-07T12:23:14.466Z,21.71
2022-08-07T12:26:22.419Z,21.75
2022-08-07T12:29:03.839Z,21.43
2022-08-07T12:32:04.845Z,20.30
2022-08-07T12:34:38.773Z,20.71
2022-08-07T12:37:16.594Z,20.75
2022-08-07T12:39:52.513Z,21.00
2022-08-07T12:42:27.242Z,21.30
2022-08-07T12:44:58.390Z,21.62
2022-08-07T12:47:51.030Z,21.76
2022-08-07T12:50:39.902Z,21.34
2022-08-07T12:53:25.210Z,21.37
2022-08-07T12:56:26.606Z,21.62
2022-08-07T12:58:57.083Z,21.57
2022-08-07T13:01:40.851Z,21.38
2022-08-07T13:04:43.530Z,20.80
2022-08-07T13:08:11.855Z,21.32
2022-08-07T13:11:08.536Z,21.52
2022-08-07T13:13:53.815Z,21.59
2022-08-07T13:17:02.313Z,21.19
2022-08-07T13:19:54.578Z,21.10
2022-08-07T13:22:36.268Z,20.85
2022-08-07T13:25:10.485Z,21.08
2022-08-07T13:28:12.706Z,21.38
2022-08-07T13:30:52.107Z,21.45
2022-08-07T13:34:29.724Z,21.42
2022-08-07T13:36:47.842Z,21.22
2022-08-07T13:39:49.216Z,21.57
2022-08-07T13:42:19.212Z,21.27
2022-08-07T13:45:11.786Z,22.06
2022-08-07T13:48:06.538Z,22.00
2022-08-07T13:50:36.632Z,22.01
2022-08-07T13:53:23.706Z,22.06
2022-08-07T13:55:54.827Z,21.74
2022-08-07T13:58:43.360Z,21.24
2022-08-07T14:01:27.046Z,21.23
2022-08-07T14:04:05.212Z,21.39
2022-08-07T14:06:40.685Z,21.41
2022-08-07T14:10:02.927Z,21.38
2022-08-07T14:12:10.273Z,21.29
2022-08-07T14:14:43.860Z,21.38
2022-08-07T14:18:12.671Z,21.40
2022-08-07T14:20:42.100Z,21.43
2022-08-07T14:23:14.706Z,21.16
2022-08-07T14:26:05.526Z,21.29
2022-08-07T14:28:58.978Z,21.18
2022-08-07T14:31:25.979Z,21.35
2022-08-07T14:34:11.955Z,21.06
2022-08-07T14:36:56.264Z,20.98
2022-08-07T14:40:16.664Z,21.12
2022-08-07T14:42:19.721Z,20.99
2022-08-07T14:44:53.538Z,21.21
2022-08-07T14:47:23.165Z,21.07
2022-08-07T14:52:40.589Z,21.87
2022-08-07T14:55:10.671Z,22.24
2022-08-07T14:57:58.110Z,21.42
2022-08-07T15:00:31.661Z,21.52
2022-08-07T15:03:18.620Z,21.22
2022-08-07T15:05:54.850Z,21.10
2022-08-07T15:08:50.247Z,20.63
2022-08-07T15:11:54.285Z,20.62
2022-08-07T15:14:20.695Z,20.29
2022-08-07T15:16:54.824Z,20.00
2022-08-07T15:22:22.159Z,19.17
2022-08-07T15:25:15.442Z,19.46
2022-08-07T15:28:32.962Z,18.66
2022-08-07T15:30:36.300Z,17.24
2022-08-07T15:33:33.858Z,16.23
2022-08-07T15:36:07.610Z,15.46
2022-08-07T15:38:51.268Z,15.75
2022-08-07T15:42:42.511Z,14.33
2022-08-07T15:44:20.836Z,13.38
2022-08-07T15:46:55.867Z,13.52
2022-08-07T15:52:30.288Z,11.62
2022-08-07T15:55:02.871Z,11.87
2022-08-07T15:57:39.892Z,12.17
2022-08-07T16:00:32.157Z,12.73
2022-08-07T16:03:47.322Z,11.36
2022-08-07T16:06:09.396Z,12.26
2022-08-07T16:08:42.421Z,11.95
2022-08-07T16:11:39.968Z,12.06
2022-08-07T16:14:36.658Z,11.31
2022-08-07T16:18:01.448Z,12.34
2022-08-07T16:20:33.954Z,11.77
2022-08-07T16:23:53.542Z,11.95
2022-08-07T16:26:30.856Z,12.07
2022-08-07T16:30:10.206Z,11.63
2022-08-07T16:32:34.498Z,12.80
2022-08-07T16:35:51.700Z,14.17
2022-08-07T16:38:57.298Z,15.15
2022-08-07T16:41:29.296Z,16.49
2022-08-07T16:44:53.609Z,17.81
2022-08-07T16:47:51.472Z,18.32
2022-08-07T16:50:48.212Z,18.82
2022-08-07T16:54:01.977Z,19.99
2022-08-07T16:56:54.708Z,19.84
2022-08-07T16:59:46.629Z,20.36
2022-08-07T17:02:28.352Z,20.80
2022-08-07T17:06:01.755Z,20.87
2022-08-07T17:08:09.265Z,21.15
2022-08-07T17:10:54.624Z,21.77
2022-08-07T17:13:41.786Z,21.42
2022-08-07T17:16:43.673Z,22.12
2022-08-07T17:20:02.178Z,22.12
2022-08-07T17:22:48.659Z,22.35
2022-08-07T17:25:51.363Z,22.67
2022-08-07T17:28:19.641Z,22.53
2022-08-07T17:31:00.636Z,22.18
2022-08-07T17:34:15.003Z,22.16
2022-08-07T17:36:57.725Z,22.60
2022-08-07T17:39:58.436Z,22.73
2022-08-07T17:42:36.033Z,22.51
2022-08-07T17:45:31.601Z,23.16
2022-08-07T17:48:31.070Z,23.21
2022-08-07T17:51:59.871Z,23.64
2022-08-07T17:54:53.644Z,23.60
2022-08-07T17:57:56.105Z,23.62
2022-08-07T18:00:27.549Z,23.84
2022-08-07T18:03:18.586Z,24.20
2022-08-07T18:06:01.814Z,24.04
2022-08-07T18:08:36.299Z,24.20
2022-08-07T18:12:17.930Z,24.02
2022-08-07T18:15:02.938Z,24.96
2022-08-07T18:18:08.259Z,24.48
2022-08-07T18:21:40.104Z,24.96
2022-08-07T18:24:28.457Z,25.13
2022-08-07T18:27:25.603Z,25.35
2022-08-07T18:30:31.596Z,24.63
2022-08-07T18:33:16.123Z,25.55
2022-08-07T18:35:55.793Z,25.34
2022-08-07T18:38:59.082Z,25.73
2022-08-07T18:41:44.915Z,26.13
2022-08-07T18:45:09.083Z,26.77
2022-08-07T18:47:36.005Z,27.11
2022-08-07T18:50:39.073Z,27.39
2022-08-07T18:53:48.718Z,27.68
2022-08-07T18:56:33.683Z,27.45
2022-08-07T18:59:47.061Z,27.88
2022-08-07T19:02:34.610Z,27.28
2022-08-07T19:06:04.179Z,27.44
2022-08-07T19:08:28.956Z,28.02
2022-08-07T19:11:36.730Z,27.96
2022-08-07T19:14:20.335Z,28.33
2022-08-07T19:17:08.063Z,28.63
2022-08-07T19:19:58.612Z,28.68
2022-08-07T19:22:48.046Z,28.58
2022-08-07T19:26:23.199Z,29.79
2022-08-07T19:28:30.536Z,29.39
2022-08-07T19:31:37.221Z,29.23
2022-08-07T19:34:00.363Z,29.83
2022-08-07T19:36:43.758Z,29.44
2022-08-07T19:39:56.910Z,29.84
2022-08-07T19:42:24.569Z,29.89
2022-08-07T19:44:57.253Z,31.17
2022-08-07T19:47:36.789Z,30.89
2022-08-07T19:50:41.250Z,30.86
2022-08-07T19:53:00.958Z,31.43
2022-08-07T19:55:56.540Z,31.59
2022-08-07T19:58:28.392Z,33.04
2022-08-07T20:00:59.837Z,32.82
2022-08-07T20:03:35.010Z,32.82
2022-08-07T20:06:05.059Z,32.63
2022-08-07T20:08:35.679Z,32.24
2022-08-07T20:11:10.292Z,32.91
2022-08-07T20:13:50.251Z,32.77
2022-08-07T20:16:36.223Z,33.70
2022-08-07T20:19:10.027Z,34.72
2022-08-07T20:21:46.793Z,33.57
2022-08-07T20:24:35.771Z,33.25
2022-08-07T20:27:11.767Z,34.04
2022-08-07T20:29:58.400Z,33.82
2022-08-07T20:32:40.076Z,35.69
2022-08-07T20:35:16.075Z,34.69
2022-08-07T20:37:58.329Z,35.68
2022-08-07T20:40:32.184Z,35.71
2022-08-07T20:43:02.248Z,35.51
2022-08-07T20:46:24.418Z,36.07
2022-08-07T20:48:28.620Z,35.96
2022-08-07T20:51:02.244Z,35.46
2022-08-07T20:54:04.482Z,36.82
2022-08-07T20:56:26.666Z,35.36
2022-08-07T20:58:55.868Z,36.26
2022-08-07T21:01:26.732Z,35.75
2022-08-07T21:04:22.656Z,36.26
2022-08-07T21:06:53.645Z,36.04
2022-08-07T21:09:24.537Z,35.99
2022-08-07T21:11:57.638Z,36.10
2022-08-07T21:14:33.395Z,36.03
2022-08-07T21:18:02.747Z,36.16
2022-08-07T21:20:04.913Z,37.16
2022-08-07T21:22:39.446Z,37.05
2022-08-07T21:25:29.025Z,36.35
2022-08-07T21:28:16.775Z,37.35
2022-08-07T21:31:49.711Z,41.03
2022-08-07T21:34:31.942Z,39.03
2022-08-07T21:37:07.989Z,39.87
2022-08-07T21:40:27.384Z,39.82
2022-08-07T21:43:47.124Z,40.20
2022-08-07T21:46:31.646Z,40.04
2022-08-07T21:49:21.132Z,41.07
2022-08-07T21:52:11.819Z,43.38
2022-08-07T21:54:50.421Z,41.57
2022-08-07T21:57:45.168Z,42.45
2022-08-07T22:00:24.787Z,43.50
2022-08-07T22:02:51.870Z,43.96
2022-08-07T22:05:45.841Z,43.29
2022-08-07T22:08:18.807Z,43.33
2022-08-07T22:11:02.495Z,44.24
2022-08-07T22:13:52.594Z,45.23
2022-08-07T22:16:47.720Z,42.56
2022-08-07T22:19:30.707Z,45.76
2022-08-07T22:22:20.803Z,46.99
2022-08-07T22:25:10.899Z,43.89
2022-08-07T22:28:24.621Z,46.38
2022-08-07T22:30:53.165Z,44.87
2022-08-07T22:33:52.707Z,45.42
2022-08-07T22:36:20.284Z,45.05
2022-08-07T22:38:59.233Z,46.15
2022-08-07T22:42:03.135Z,44.77
2022-08-07T22:44:34.474Z,45.40
2022-08-07T22:47:28.187Z,45.31
2022-08-07T22:50:32.997Z,47.66
2022-08-07T22:54:06.607Z,45.81
2022-08-07T22:56:39.980Z,46.66
2022-08-07T22:59:47.216Z,46.57
2022-08-07T23:02:48.785Z,46.83
2022-08-07T23:06:07.813Z,47.72
2022-08-07T23:08:22.161Z,46.84
2022-08-07T23:11:12.954Z,48.30
2022-08-07T23:14:16.146Z,48.58
2022-08-07T23:17:19.836Z,47.59
2022-08-07T23:20:40.474Z,50.40
2022-08-07T23:24:04.269Z,48.76
2022-08-07T23:26:54.960Z,49.95
2022-08-07T23:30:37.608Z,48.55
2022-08-07T23:34:34.650Z,48.92
2022-08-07T23:36:10.661Z,47.95
2022-08-07T23:38:57.156Z,47.88
2022-08-07T23:41:47.436Z,47.46
2022-08-07T23:44:51.315Z,48.36
2022-08-07T23:47:47.937Z,47.51
2022-08-07T23:50:36.670Z,47.42
2022-08-07T23:53:49.925Z,47.04
2022-08-07T23:56:21.708Z,47.32
2022-08-07T23:59:10.828Z,46.88
